Island Lake Airport
CYIV : now visible

Airfield :











YOU CAN JOIN US ON...

 
LOGIN :

Register | Disclaimer

   EN    FR    IT 

 









Legend :    VFR   Marginal VFR   IFR   Intensive IFR   Very Intensive IFR
Visi :
Ceiling :
>= 8 km
>= 3000ft
5 to 8 km
1000 to 3000 ft
1500m to 5 km
500 to 1000 ft
800 to 1500m
200 to 500 ft
< 800m
< 200 ft
Symbols :   Thunderstorms  Fog  Heavy snow  Heavy precipitations  Wind > 20 kt






- Airport Elevation : 770 ft
- IATA code : YIV


CYIV - Island Lake

CURRENT METAR :
  • 231900Z 30013KT 15SM BKN025 BKN070 20/12 A2930 RMK SC6AC1 SLP925 DENSITY ALT 2300FT

EXPIRED METARs :
  • 231800Z 30009G15KT 15SM BKN025 BKN080 20/13 A2928 RMK SC5AC2 SLP918 DENSITY ALT 2300FT
  • 231700Z 28010KT 15SM FEW020 BKN080 19/13 A2926 RMK SC1AC6 SLP913 DENSITY ALT 2200FT

TAF TAF CYIV
Valid from the 23 at 19:00 until the 24 at 07:00 UTC


231838Z 2319/2407 30010G20KT P6SM SCT020 BKN080
TEMPO 2319/2407 P6SM -SHRA BKN020
PROB30 2320/2402 VRB20G30KT 5SM TSRA BR BKN020 OVC070CB RMK NXT FCST BY 240100Z
CZWG FIR / North America



MET'MAP, your aeronautical weather chart ! - Copyright ORBIFLY December 2007 - Disclaimer

ORBIFLY MET'MAP TEAM :

Programming & Development : Alexandra Zaïnal
Concept & original design : Baudouin d'Aumeries
Assistance for programming : Marc-Olivier Méhu
Technical & hardware support : Manuel Goepfert

Contact : metmap@orbifly.com




SOURCES & CREDITS :

   NOAA       Earth
Advisory